sensor_id;sensor_type;location;lat;lon;timestamp;pressure;altitude;pressure_sealevel;temperature;humidity
5988;BME280;3021;51.000;6.980;2023-03-16T00:02:10;66599.38;;;2.69;100.00
5988;BME280;3021;51.000;6.980;2023-03-16T00:04:36;66594.22;;;2.65;100.00
5988;BME280;3021;51.000;6.980;2023-03-16T00:07:06;66587.75;;;2.56;100.00
5988;BME280;3021;51.000;6.980;2023-03-16T00:09:32;66579.72;;;2.49;100.00
5988;BME280;3021;51.000;6.980;2023-03-16T00:11:58;66573.97;;;2.44;100.00
5988;BME280;3021;51.000;6.980;2023-03-16T00:14:25;66578.72;;;2.51;100.00
5988;BME280;3021;51.000;6.980;2023-03-16T00:16:50;66568.81;;;2.39;100.00
5988;BME280;3021;51.000;6.980;2023-03-16T00:19:15;66564.97;;;2.38;100.00
5988;BME280;3021;51.000;6.980;2023-03-16T00:21:41;66575.84;;;2.48;100.00
5988;BME280;3021;51.000;6.980;2023-03-16T00:24:06;66570.53;;;2.41;100.00
5988;BME280;3021;51.000;6.980;2023-03-16T00:26:32;66566.69;;;2.40;100.00
5988;BME280;3021;51.000;6.980;2023-03-16T00:28:57;66574.41;;;2.42;100.00
5988;BME280;3021;51.000;6.980;2023-03-16T00:31:23;66562.84;;;2.39;100.00
5988;BME280;3021;51.000;6.980;2023-03-16T00:33:49;66568.66;;;2.37;100.00
5988;BME280;3021;51.000;6.980;2023-03-16T00:36:15;66566.69;;;2.40;100.00
5988;BME280;3021;51.000;6.980;2023-03-16T00:38:41;66573.00;;;2.46;100.00
5988;BME280;3021;51.000;6.980;2023-03-16T00:41:12;66578.56;;;2.48;100.00
5988;BME280;3021;51.000;6.980;2023-03-16T00:43:40;66580.72;;;2.48;100.00
5988;BME280;3021;51.000;6.980;2023-03-16T00:46:12;66572.69;;;2.40;100.00
5988;BME280;3021;51.000;6.980;2023-03-16T00:48:40;66592.91;;;2.61;100.00
5988;BME280;3021;51.000;6.980;2023-03-16T00:51:08;66582.75;;;2.54;100.00
5988;BME280;3021;51.000;6.980;2023-03-16T00:53:34;66583.72;;;2.53;100.00
5988;BME280;3021;51.000;6.980;2023-03-16T00:56:01;66596.34;;;2.64;100.00
5988;BME280;3021;51.000;6.980;2023-03-16T00:58:29;66590.94;;;2.64;100.00
5988;BME280;3021;51.000;6.980;2023-03-16T01:00:54;66598.97;;;2.71;100.00
5988;BME280;3021;51.000;6.980;2023-03-16T01:03:21;66599.81;;;2.67;100.00
5988;BME280;3021;51.000;6.980;2023-03-16T01:05:46;66605.97;;;2.70;100.00
5988;BME280;3021;51.000;6.980;2023-03-16T01:08:13;66607.25;;;2.74;100.00
5988;BME280;3021;51.000;6.980;2023-03-16T01:10:38;66612.41;;;2.79;100.00
5988;BME280;3021;51.000;6.980;2023-03-16T01:13:05;66611.28;;;2.78;100.00
5988;BME280;3021;51.000;6.980;2023-03-16T01:15:32;66609.16;;;2.78;100.00
5988;BME280;3021;51.000;6.980;2023-03-16T01:17:59;66611.59;;;2.83;100.00
5988;BME280;3021;51.000;6.980;2023-03-16T01:20:25;66616.44;;;2.82;100.00
5988;BME280;3021;51.000;6.980;2023-03-16T01:22:51;66609.88;;;2.81;100.00
5988;BME280;3021;51.000;6.980;2023-03-16T01:25:16;66615.88;;;2.82;100.00
5988;BME280;3021;51.000;6.980;2023-03-16T01:27:42;66617.59;;;2.83;100.00
5988;BME280;3021;51.000;6.980;2023-03-16T01:30:08;66616.63;;;2.85;100.00
5988;BME280;3021;51.000;6.980;2023-03-16T01:32:36;66620.44;;;2.86;100.00
5988;BME280;3021;51.000;6.980;2023-03-16T01:35:02;66625.03;;;2.90;100.00
5988;BME280;3021;51.000;6.980;2023-03-16T01:37:29;66618.50;;;2.89;100.00
5988;BME280;3021;51.000;6.980;2023-03-16T01:39:54;66618.16;;;2.84;100.00
5988;BME280;3021;51.000;6.980;2023-03-16T01:42:20;66623.16;;;2.86;100.00
5988;BME280;3021;51.000;6.980;2023-03-16T01:44:56;66617.75;;;2.86;100.00
5988;BME280;3021;51.000;6.980;2023-03-16T01:47:26;66618.34;;;2.86;100.00
5988;BME280;3021;51.000;6.980;2023-03-16T01:49:54;66620.63;;;2.88;100.00
5988;BME280;3021;51.000;6.980;2023-03-16T01:52:24;66623.31;;;2.88;100.00
5988;BME280;3021;51.000;6.980;2023-03-16T01:54:56;66622.59;;;2.85;100.00
5988;BME280;3021;51.000;6.980;2023-03-16T01:57:26;66629.06;;;2.93;100.00
5988;BME280;3021;51.000;6.980;2023-03-16T02:02:40;66626.03;;;2.88;100.00
5988;BME280;3021;51.000;6.980;2023-03-16T02:05:11;66623.91;;;2.89;100.00
5988;BME280;3021;51.000;6.980;2023-03-16T02:07:48;66622.94;;;2.90;100.00
5988;BME280;3021;51.000;6.980;2023-03-16T02:10:16;66623.91;;;2.89;100.00
5988;BME280;3021;51.000;6.980;2023-03-16T02:12:43;66619.88;;;2.85;100.00
5988;BME280;3021;51.000;6.980;2023-03-16T02:15:09;66619.72;;;2.83;100.00
5988;BME280;3021;51.000;6.980;2023-03-16T02:17:36;66609.56;;;2.76;100.00
5988;BME280;3021;51.000;6.980;2023-03-16T02:22:51;66611.84;;;2.78;100.00
5988;BME280;3021;51.000;6.980;2023-03-16T02:25:25;66617.00;;;2.83;100.00
5988;BME280;3021;51.000;6.980;2023-03-16T02:30:19;66601.53;;;2.69;100.00
5988;BME280;3021;51.000;6.980;2023-03-16T02:32:47;66611.28;;;2.78;100.00
5988;BME280;3021;51.000;6.980;2023-03-16T02:35:13;66618.16;;;2.84;100.00
5988;BME280;3021;51.000;6.980;2023-03-16T02:37:39;66615.47;;;2.84;100.00
5988;BME280;3021;51.000;6.980;2023-03-16T02:40:25;66606.84;;;2.76;100.00
5988;BME280;3021;51.000;6.980;2023-03-16T02:43:01;66608.00;;;2.77;100.00
5988;BME280;3021;51.000;6.980;2023-03-16T02:45:31;66610.88;;;2.80;100.00
5988;BME280;3021;51.000;6.980;2023-03-16T02:48:01;66618.72;;;2.84;100.00
5988;BME280;3021;51.000;6.980;2023-03-16T02:50:29;66613.31;;;2.84;100.00
5988;BME280;3021;51.000;6.980;2023-03-16T02:52:54;66608.25;;;2.72;100.00
5988;BME280;3021;51.000;6.980;2023-03-16T02:55:20;66602.84;;;2.72;100.00
5988;BME280;3021;51.000;6.980;2023-03-16T02:57:46;66609.56;;;2.76;100.00
5988;BME280;3021;51.000;6.980;2023-03-16T03:00:12;66616.44;;;2.82;100.00
5988;BME280;3021;51.000;6.980;2023-03-16T03:02:42;66613.19;;;2.82;100.00
5988;BME280;3021;51.000;6.980;2023-03-16T03:05:07;66614.88;;;2.83;100.00
5988;BME280;3021;51.000;6.980;2023-03-16T03:07:33;66623.91;;;2.89;100.00
5988;BME280;3021;51.000;6.980;2023-03-16T03:09:58;66618.91;;;2.87;100.00
5988;BME280;3021;51.000;6.980;2023-03-16T03:12:23;66621.78;;;2.89;100.00
5988;BME280;3021;51.000;6.980;2023-03-16T03:14:49;66615.03;;;2.86;100.00
5988;BME280;3021;51.000;6.980;2023-03-16T03:17:14;66629.66;;;2.94;100.00
5988;BME280;3021;51.000;6.980;2023-03-16T03:19:40;66624.22;;;2.94;100.00
5988;BME280;3021;51.000;6.980;2023-03-16T03:22:05;66635.38;;;2.99;100.00
5988;BME280;3021;51.000;6.980;2023-03-16T03:24:32;66627.09;;;2.97;100.00
5988;BME280;3021;51.000;6.980;2023-03-16T03:26:58;66628.09;;;2.95;100.00
5988;BME280;3021;51.000;6.980;2023-03-16T03:29:31;66625.22;;;2.92;100.00
5988;BME280;3021;51.000;6.980;2023-03-16T03:31:59;66629.06;;;2.93;100.00
5988;BME280;3021;51.000;6.980;2023-03-16T03:34:25;66628.09;;;2.95;100.00
5988;BME280;3021;51.000;6.980;2023-03-16T03:36:50;66629.97;;;2.99;100.00
5988;BME280;3021;51.000;6.980;2023-03-16T03:39:17;66634.81;;;2.99;100.00
5988;BME280;3021;51.000;6.980;2023-03-16T03:41:43;66632.94;;;2.94;100.00
5988;BME280;3021;51.000;6.980;2023-03-16T03:44:08;66627.91;;;2.92;100.00
5988;BME280;3021;51.000;6.980;2023-03-16T03:46:33;66621.59;;;2.87;100.00
5988;BME280;3021;51.000;6.980;2023-03-16T03:48:59;66616.63;;;2.85;100.00
5988;BME280;3021;51.000;6.980;2023-03-16T03:51:28;66618.91;;;2.87;100.00
5988;BME280;3021;51.000;6.980;2023-03-16T03:53:53;66615.28;;;2.81;100.00
5988;BME280;3021;51.000;6.980;2023-03-16T03:56:19;66618.16;;;2.84;100.00
5988;BME280;3021;51.000;6.980;2023-03-16T03:58:44;66620.63;;;2.88;100.00
5988;BME280;3021;51.000;6.980;2023-03-16T04:01:10;66614.88;;;2.83;100.00
5988;BME280;3021;51.000;6.980;2023-03-16T04:03:35;66619.50;;;2.87;100.00
5988;BME280;3021;51.000;6.980;2023-03-16T04:06:00;66617.00;;;2.83;100.00
5988;BME280;3021;51.000;6.980;2023-03-16T04:08:26;66621.22;;;2.89;100.00
5988;BME280;3021;51.000;6.980;2023-03-16T04:10:51;66621.59;;;2.87;100.00
5988;BME280;3021;51.000;6.980;2023-03-16T04:13:16;66622.94;;;2.90;100.00
5988;BME280;3021;51.000;6.980;2023-03-16T04:15:42;66629.06;;;2.93;100.00
5988;BME280;3021;51.000;6.980;2023-03-16T04:18:11;66632.53;;;2.97;100.00
5988;BME280;3021;51.000;6.980;2023-03-16T04:20:37;66633.09;;;2.97;100.00
5988;BME280;3021;51.000;6.980;2023-03-16T04:23:02;66634.25;;;2.98;100.00
5988;BME280;3021;51.000;6.980;2023-03-16T04:25:29;66633.09;;;2.97;100.00
5988;BME280;3021;51.000;6.980;2023-03-16T04:27:55;66623.09;;;2.93;100.00
5988;BME280;3021;51.000;6.980;2023-03-16T04:30:21;66623.31;;;2.88;100.00
5988;BME280;3021;51.000;6.980;2023-03-16T04:32:49;66615.88;;;2.82;100.00
5988;BME280;3021;51.000;6.980;2023-03-16T04:35:16;66624.66;;;2.92;100.00
5988;BME280;3021;51.000;6.980;2023-03-16T04:37:41;66625.03;;;2.90;100.00
5988;BME280;3021;51.000;6.980;2023-03-16T04:40:07;66628.19;;;2.88;100.00
5988;BME280;3021;51.000;6.980;2023-03-16T04:42:39;66631.53;;;2.98;100.00
5988;BME280;3021;51.000;6.980;2023-03-16T04:45:05;66626.53;;;2.96;100.00
5988;BME280;3021;51.000;6.980;2023-03-16T04:47:30;66635.97;;;3.00;100.00
5988;BME280;3021;51.000;6.980;2023-03-16T04:49:58;66637.69;;;3.01;100.00
5988;BME280;3021;51.000;6.980;2023-03-16T04:52:24;66647.44;;;3.10;100.00
5988;BME280;3021;51.000;6.980;2023-03-16T04:54:49;66641.88;;;3.07;100.00
5988;BME280;3021;51.000;6.980;2023-03-16T04:57:16;66652.03;;;3.14;100.00
5988;BME280;3021;51.000;6.980;2023-03-16T04:59:43;66657.78;;;3.19;100.00
5988;BME280;3021;51.000;6.980;2023-03-16T05:02:08;66658.34;;;3.20;100.00
5988;BME280;3021;51.000;6.980;2023-03-16T05:04:34;66659.50;;;3.21;100.00
5988;BME280;3021;51.000;6.980;2023-03-16T05:06:59;66660.81;;;3.24;100.00
5988;BME280;3021;51.000;6.980;2023-03-16T05:09:25;66659.25;;;3.25;100.00
5988;BME280;3021;51.000;6.980;2023-03-16T05:11:50;66657.22;;;3.19;100.00
5988;BME280;3021;51.000;6.980;2023-03-16T05:14:15;66666.38;;;3.27;100.00
5988;BME280;3021;51.000;6.980;2023-03-16T05:16:41;66670.00;;;3.33;100.00
5988;BME280;3021;51.000;6.980;2023-03-16T05:19:06;66664.25;;;3.27;100.00
5988;BME280;3021;51.000;6.980;2023-03-16T05:21:31;66664.66;;;3.25;100.00
5988;BME280;3021;51.000;6.980;2023-03-16T05:23:58;66656.78;;;3.21;100.00
5988;BME280;3021;51.000;6.980;2023-03-16T05:26:23;66657.34;;;3.21;100.00
5988;BME280;3021;51.000;6.980;2023-03-16T05:28:50;66667.53;;;3.28;100.00
5988;BME280;3021;51.000;6.980;2023-03-16T05:31:16;66660.97;;;3.27;100.00
5988;BME280;3021;51.000;6.980;2023-03-16T05:33:42;66665.81;;;3.26;100.00
5988;BME280;3021;51.000;6.980;2023-03-16T05:36:09;66668.28;;;3.31;100.00
5988;BME280;3021;51.000;6.980;2023-03-16T05:38:34;66671.16;;;3.34;100.00
5988;BME280;3021;51.000;6.980;2023-03-16T05:41:01;66679.75;;;3.41;100.00
5988;BME280;3021;51.000;6.980;2023-03-16T05:43:28;66688.78;;;3.47;100.00
5988;BME280;3021;51.000;6.980;2023-03-16T05:45:55;66685.50;;;3.46;100.00
5988;BME280;3021;51.000;6.980;2023-03-16T05:48:21;66685.50;;;3.46;100.00
5988;BME280;3021;51.000;6.980;2023-03-16T05:50:46;66688.94;;;3.50;100.00
5988;BME280;3021;51.000;6.980;2023-03-16T05:53:12;66690.25;;;3.53;100.00
5988;BME280;3021;51.000;6.980;2023-03-16T05:55:38;66685.50;;;3.46;100.00
5988;BME280;3021;51.000;6.980;2023-03-16T05:58:03;66696.41;;;3.56;100.00
5988;BME280;3021;51.000;6.980;2023-03-16T06:00:29;66692.38;;;3.53;100.00
5988;BME280;3021;51.000;6.980;2023-03-16T06:02:54;66699.13;;;3.56;100.00
5988;BME280;3021;51.000;6.980;2023-03-16T06:05:20;66696.97;;;3.57;100.00
5988;BME280;3021;51.000;6.980;2023-03-16T06:07:47;66696.00;;;3.58;100.00
5988;BME280;3021;51.000;6.980;2023-03-16T06:10:13;66706.75;;;3.66;100.00
5988;BME280;3021;51.000;6.980;2023-03-16T06:12:39;66714.22;;;3.72;100.00
5988;BME280;3021;51.000;6.980;2023-03-16T06:15:06;66719.81;;;3.75;100.00
5988;BME280;3021;51.000;6.980;2023-03-16T06:17:32;66726.84;;;3.84;100.00
5988;BME280;3021;51.000;6.980;2023-03-16T06:19:57;66732.03;;;3.88;100.00
5988;BME280;3021;51.000;6.980;2023-03-16T06:22:23;66736.06;;;3.92;100.00
5988;BME280;3021;51.000;6.980;2023-03-16T06:24:49;66728.41;;;3.83;100.00
5988;BME280;3021;51.000;6.980;2023-03-16T06:27:14;66745.66;;;3.98;100.00
5988;BME280;3021;51.000;6.980;2023-03-16T06:29:40;66746.97;;;4.02;100.00
5988;BME280;3021;51.000;6.980;2023-03-16T06:32:05;66760.19;;;4.13;100.00
5988;BME280;3021;51.000;6.980;2023-03-16T06:34:30;66792.03;;;4.37;100.00
5988;BME280;3021;51.000;6.980;2023-03-16T06:36:56;66801.97;;;4.48;100.00
5988;BME280;3021;51.000;6.980;2023-03-16T06:39:21;66809.03;;;4.57;100.00
5988;BME280;3021;51.000;6.980;2023-03-16T06:41:46;66810.34;;;4.61;100.00
5988;BME280;3021;51.000;6.980;2023-03-16T06:44:11;66801.56;;;4.50;100.00
5988;BME280;3021;51.000;6.980;2023-03-16T06:46:37;66809.03;;;4.57;100.00
5988;BME280;3021;51.000;6.980;2023-03-16T06:49:03;66803.84;;;4.53;100.00
5988;BME280;3021;51.000;6.980;2023-03-16T06:51:29;66806.47;;;4.60;100.00
5988;BME280;3021;51.000;6.980;2023-03-16T06:53:55;66828.59;;;4.75;100.00
5988;BME280;3021;51.000;6.980;2023-03-16T06:56:21;66831.19;;;4.82;100.00
5988;BME280;3021;51.000;6.980;2023-03-16T06:58:46;66839.81;;;4.90;100.00
5988;BME280;3021;51.000;6.980;2023-03-16T07:01:12;66842.97;;;4.88;100.00
5988;BME280;3021;51.000;6.980;2023-03-16T07:03:37;66852.72;;;4.96;100.00
5988;BME280;3021;51.000;6.980;2023-03-16T07:06:03;66866.38;;;5.06;100.00
5988;BME280;3021;51.000;6.980;2023-03-16T07:08:30;66866.94;;;5.07;100.00
5988;BME280;3021;51.000;6.980;2023-03-16T07:10:55;66868.09;;;5.08;100.00
5988;BME280;3021;51.000;6.980;2023-03-16T07:13:20;66871.28;;;5.15;100.00
5988;BME280;3021;51.000;6.980;2023-03-16T07:15:49;66859.94;;;5.08;100.00
5988;BME280;3021;51.000;6.980;2023-03-16T07:18:16;66858.47;;;5.01;100.00
5988;BME280;3021;51.000;6.980;2023-03-16T07:20:41;66880.31;;;5.21;100.00
5988;BME280;3021;51.000;6.980;2023-03-16T07:23:07;66882.78;;;5.26;100.00
5988;BME280;3021;51.000;6.980;2023-03-16T07:25:32;66909.69;;;5.47;100.00
5988;BME280;3021;51.000;6.980;2023-03-16T07:27:57;66910.41;;;5.50;100.00
5988;BME280;3021;51.000;6.980;2023-03-16T07:30:22;66920.75;;;5.60;100.00
5988;BME280;3021;51.000;6.980;2023-03-16T07:32:49;66913.69;;;5.51;100.00
5988;BME280;3021;51.000;6.980;2023-03-16T07:35:15;66920.75;;;5.60;100.00
5988;BME280;3021;51.000;6.980;2023-03-16T07:37:41;66923.91;;;5.58;100.00
5988;BME280;3021;51.000;6.980;2023-03-16T07:40:07;66937.59;;;5.77;100.00
5988;BME280;3021;51.000;6.980;2023-03-16T07:42:33;66967.81;;;5.99;100.00
5988;BME280;3021;51.000;6.980;2023-03-16T07:44:59;66984.50;;;6.14;100.00
5988;BME280;3021;51.000;6.980;2023-03-16T07:47:25;66977.75;;;6.11;100.00
5988;BME280;3021;51.000;6.980;2023-03-16T07:49:51;67003.66;;;6.34;100.00
5988;BME280;3021;51.000;6.980;2023-03-16T07:52:16;67026.09;;;6.54;100.00
5988;BME280;3021;51.000;6.980;2023-03-16T07:54:42;67035.31;;;6.62;100.00
5988;BME280;3021;51.000;6.980;2023-03-16T07:57:07;67061.81;;;6.86;100.00
5988;BME280;3021;51.000;6.980;2023-03-16T07:59:33;67099.28;;;7.19;100.00
5988;BME280;3021;51.000;6.980;2023-03-16T08:01:58;67104.44;;;7.24;100.00
5988;BME280;3021;51.000;6.980;2023-03-16T08:04:23;67095.81;;;7.16;100.00
5988;BME280;3021;51.000;6.980;2023-03-16T08:06:49;67129.38;;;7.49;100.00
5988;BME280;3021;51.000;6.980;2023-03-16T08:09:17;67128.81;;;7.48;100.00
5988;BME280;3021;51.000;6.980;2023-03-16T08:11:42;67120.00;;;7.38;100.00
5988;BME280;3021;51.000;6.980;2023-03-16T08:14:07;67105.59;;;7.25;100.00
5988;BME280;3021;51.000;6.980;2023-03-16T08:16:33;67133.25;;;7.50;100.00
5988;BME280;3021;51.000;6.980;2023-03-16T08:18:58;67144.38;;;7.62;100.00
5988;BME280;3021;51.000;6.980;2023-03-16T08:21:24;67110.22;;;7.29;100.00
5988;BME280;3021;51.000;6.980;2023-03-16T08:23:49;67156.34;;;7.70;100.00
5988;BME280;3021;51.000;6.980;2023-03-16T08:26:19;67158.63;;;7.72;100.00
5988;BME280;3021;51.000;6.980;2023-03-16T08:28:45;67187.00;;;8.00;100.00
5988;BME280;3021;51.000;6.980;2023-03-16T08:31:12;67216.28;;;8.24;100.00
5988;BME280;3021;51.000;6.980;2023-03-16T08:33:38;67173.03;;;7.85;100.00
5988;BME280;3021;51.000;6.980;2023-03-16T08:36:08;67195.69;;;8.08;100.00
5988;BME280;3021;51.000;6.980;2023-03-16T08:38:34;67203.59;;;8.12;100.00
5988;BME280;3021;51.000;6.980;2023-03-16T08:40:59;67214.56;;;8.22;100.00
5988;BME280;3021;51.000;6.980;2023-03-16T08:43:26;67222.63;;;8.29;100.00
5988;BME280;3021;51.000;6.980;2023-03-16T08:45:52;67271.69;;;8.73;100.00
5988;BME280;3021;51.000;6.980;2023-03-16T08:48:18;67317.84;;;9.14;100.00
5988;BME280;3021;51.000;6.980;2023-03-16T08:50:44;67298.81;;;8.97;100.00
5988;BME280;3021;51.000;6.980;2023-03-16T08:53:11;67305.28;;;9.06;100.00
5988;BME280;3021;51.000;6.980;2023-03-16T08:55:38;67277.44;;;8.78;100.00
5988;BME280;3021;51.000;6.980;2023-03-16T08:58:06;67257.84;;;8.61;100.00
5988;BME280;3021;51.000;6.980;2023-03-16T09:00:32;67295.91;;;8.95;100.00
5988;BME280;3021;51.000;6.980;2023-03-16T09:02:57;67291.31;;;8.91;100.00
5988;BME280;3021;51.000;6.980;2023-03-16T09:05:23;67260.13;;;8.63;100.00
5988;BME280;3021;51.000;6.980;2023-03-16T09:07:49;67225.06;;;8.34;100.00
5988;BME280;3021;51.000;6.980;2023-03-16T09:10:15;67230.13;;;8.36;100.00
5988;BME280;3021;51.000;6.980;2023-03-16T09:12:43;67279.19;;;8.80;100.00
5988;BME280;3021;51.000;6.980;2023-03-16T09:15:10;67257.25;;;8.60;100.00
5988;BME280;3021;51.000;6.980;2023-03-16T09:17:37;67234.75;;;8.40;100.00
5988;BME280;3021;51.000;6.980;2023-03-16T09:20:03;67242.09;;;8.44;100.00
5988;BME280;3021;51.000;6.980;2023-03-16T09:22:29;67238.78;;;8.44;100.00
5988;BME280;3021;51.000;6.980;2023-03-16T09:24:55;67307.47;;;9.05;100.00
5988;BME280;3021;51.000;6.980;2023-03-16T09:27:20;67319.00;;;9.15;100.00
5988;BME280;3021;51.000;6.980;2023-03-16T09:29:46;67355.38;;;9.48;100.00
5988;BME280;3021;51.000;6.980;2023-03-16T09:32:13;67414.28;;;10.00;100.00
5988;BME280;3021;51.000;6.980;2023-03-16T09:34:38;67549.06;;;11.23;100.00
5988;BME280;3021;51.000;6.980;2023-03-16T09:37:04;67566.41;;;11.38;100.00
5988;BME280;3021;51.000;6.980;2023-03-16T09:39:29;67603.88;;;11.69;100.00
5988;BME280;3021;51.000;6.980;2023-03-16T09:42:37;67539.69;;;11.12;100.00
5988;BME280;3021;51.000;6.980;2023-03-16T09:46:04;67540.97;;;11.16;100.00
5988;BME280;3021;51.000;6.980;2023-03-16T09:48:21;67487.38;;;10.70;100.00
5988;BME280;3021;51.000;6.980;2023-03-16T09:50:49;67492.28;;;10.70;100.00
5988;BME280;3021;51.000;6.980;2023-03-16T09:53:27;67417.28;;;10.06;100.00
5988;BME280;3021;51.000;6.980;2023-03-16T09:58:28;67420.03;;;10.06;100.00
5988;BME280;3021;51.000;6.980;2023-03-16T10:06:46;67428.28;;;10.15;100.00
5988;BME280;3021;51.000;6.980;2023-03-16T10:09:27;67389.00;;;9.80;100.00
5988;BME280;3021;51.000;6.980;2023-03-16T10:11:57;67377.31;;;9.67;100.00
5988;BME280;3021;51.000;6.980;2023-03-16T10:14:38;67389.59;;;9.81;100.00
5988;BME280;3021;51.000;6.980;2023-03-16T10:17:14;67424.97;;;10.15;100.00
5988;BME280;3021;51.000;6.980;2023-03-16T10:22:21;67387.28;;;9.79;100.00
5988;BME280;3021;51.000;6.980;2023-03-16T10:27:19;67380.78;;;9.71;100.00
5988;BME280;3021;51.000;6.980;2023-03-16T10:29:46;67393.31;;;9.79;100.00
5988;BME280;3021;51.000;6.980;2023-03-16T10:32:16;67384.25;;;9.74;100.00
5988;BME280;3021;51.000;6.980;2023-03-16T10:34:47;67397.50;;;9.85;100.00
5988;BME280;3021;51.000;6.980;2023-03-16T10:37:17;67448.91;;;10.31;100.00
5988;BME280;3021;51.000;6.980;2023-03-16T10:39:42;67513.69;;;10.89;100.00
5988;BME280;3021;51.000;6.980;2023-03-16T10:42:16;67529.28;;;11.03;100.00
5988;BME280;3021;51.000;6.980;2023-03-16T10:44:42;67495.88;;;10.76;100.00
5988;BME280;3021;51.000;6.980;2023-03-16T10:47:17;67489.25;;;10.65;100.00
5988;BME280;3021;51.000;6.980;2023-03-16T10:49:43;67503.09;;;10.77;100.00
5988;BME280;3021;51.000;6.980;2023-03-16T10:55:16;67610.94;;;11.78;100.00
5988;BME280;3021;51.000;6.980;2023-03-16T10:57:51;67597.06;;;11.66;100.00
5988;BME280;3021;51.000;6.980;2023-03-16T11:00:27;67659.00;;;12.21;100.00
5988;BME280;3021;51.000;6.980;2023-03-16T11:02:55;67614.88;;;11.79;100.00
5988;BME280;3021;51.000;6.980;2023-03-16T11:07:58;67572.06;;;11.41;100.00
5988;BME280;3021;51.000;6.980;2023-03-16T11:12:52;67585.34;;;11.53;100.00
5988;BME280;3021;51.000;6.980;2023-03-16T11:15:18;67566.88;;;11.36;100.00
5988;BME280;3021;51.000;6.980;2023-03-16T11:17:48;67550.22;;;11.24;100.00
5988;BME280;3021;51.000;6.980;2023-03-16T11:20:21;67567.59;;;11.39;100.00
5988;BME280;3021;51.000;6.980;2023-03-16T11:22:47;67601.13;;;11.69;100.00
5988;BME280;3021;51.000;6.980;2023-03-16T11:25:51;67617.16;;;11.81;100.00
5988;BME280;3021;51.000;6.980;2023-03-16T11:28:33;67657.13;;;12.17;100.00
5988;BME280;3021;51.000;6.980;2023-03-16T11:33:44;67686.78;;;12.45;100.00
5988;BME280;3021;51.000;6.980;2023-03-16T11:37:01;67642.94;;;12.09;100.00
5988;BME280;3021;51.000;6.980;2023-03-16T11:39:22;67583.63;;;11.51;100.00
5988;BME280;3021;51.000;6.980;2023-03-16T11:44:43;67617.16;;;11.81;100.00
5988;BME280;3021;51.000;6.980;2023-03-16T11:58:37;67610.25;;;11.75;100.00
5988;BME280;3021;51.000;6.980;2023-03-16T12:11:44;67657.69;;;12.17;100.00
5988;BME280;3021;51.000;6.980;2023-03-16T12:14:19;67662.91;;;12.22;100.00
5988;BME280;3021;51.000;6.980;2023-03-16T12:19:29;67654.22;;;12.14;100.00
5988;BME280;3021;51.000;6.980;2023-03-16T12:24:58;67619.06;;;11.85;100.00
5988;BME280;3021;51.000;6.980;2023-03-16T12:27:28;67598.22;;;11.67;100.00
5988;BME280;3021;51.000;6.980;2023-03-16T12:38:36;67715.56;;;12.69;100.00
5988;BME280;3021;51.000;6.980;2023-03-16T12:44:04;67677.38;;;12.35;100.00
5988;BME280;3021;51.000;6.980;2023-03-16T12:49:21;67709.34;;;12.66;100.00
5988;BME280;3021;51.000;6.980;2023-03-16T12:51:58;67772.47;;;13.22;100.00
5988;BME280;3021;51.000;6.980;2023-03-16T12:54:24;67742.50;;;12.98;100.00
5988;BME280;3021;51.000;6.980;2023-03-16T12:56:51;67760.44;;;13.13;100.00
5988;BME280;3021;51.000;6.980;2023-03-16T12:59:20;67742.50;;;12.98;100.00
5988;BME280;3021;51.000;6.980;2023-03-16T13:01:50;67729.00;;;12.83;100.00
5988;BME280;3021;51.000;6.980;2023-03-16T13:04:19;67715.28;;;12.73;100.00
5988;BME280;3021;51.000;6.980;2023-03-16T13:06:48;67703.13;;;12.62;100.00
5988;BME280;3021;51.000;6.980;2023-03-16T13:09:24;67708.78;;;12.65;100.00
5988;BME280;3021;51.000;6.980;2023-03-16T13:11:57;67720.19;;;12.73;100.00
5988;BME280;3021;51.000;6.980;2023-03-16T13:17:02;67760.28;;;13.11;100.00
5988;BME280;3021;51.000;6.980;2023-03-16T13:19:30;67788.25;;;13.38;100.00
5988;BME280;3021;51.000;6.980;2023-03-16T13:22:18;67796.22;;;13.43;100.00
5988;BME280;3021;51.000;6.980;2023-03-16T13:24:50;67769.72;;;13.22;100.00
5988;BME280;3021;51.000;6.980;2023-03-16T13:27:28;67794.34;;;13.39;100.00
5988;BME280;3021;51.000;6.980;2023-03-16T13:29:59;67745.66;;;12.95;100.00
5988;BME280;3021;51.000;6.980;2023-03-16T13:32:31;67720.34;;;12.75;100.00
5988;BME280;3021;51.000;6.980;2023-03-16T13:34:58;67720.91;;;12.76;100.00
5988;BME280;3021;51.000;6.980;2023-03-16T13:37:27;67723.81;;;12.78;100.00
5988;BME280;3021;51.000;6.980;2023-03-16T13:39:58;67699.94;;;12.55;100.00
5988;BME280;3021;51.000;6.980;2023-03-16T13:42:27;67705.88;;;12.62;100.00
5988;BME280;3021;51.000;6.980;2023-03-16T13:44:54;67700.53;;;12.55;100.00
5988;BME280;3021;51.000;6.980;2023-03-16T13:47:21;67700.53;;;12.55;100.00
5988;BME280;3021;51.000;6.980;2023-03-16T13:49:54;67671.72;;;12.32;100.00
5988;BME280;3021;51.000;6.980;2023-03-16T13:52:31;67661.19;;;12.20;100.00
5988;BME280;3021;51.000;6.980;2023-03-16T13:54:58;67639.19;;;12.01;100.00
5988;BME280;3021;51.000;6.980;2023-03-16T13:57:31;67653.66;;;12.14;100.00
5988;BME280;3021;51.000;6.980;2023-03-16T14:00:03;67663.63;;;12.25;100.00
5988;BME280;3021;51.000;6.980;2023-03-16T14:02:39;67666.94;;;12.25;100.00
5988;BME280;3021;51.000;6.980;2023-03-16T14:05:18;67686.06;;;12.42;100.00
5988;BME280;3021;51.000;6.980;2023-03-16T14:07:46;67697.31;;;12.57;100.00
5988;BME280;3021;51.000;6.980;2023-03-16T14:10:13;67682.28;;;12.44;100.00
5988;BME280;3021;51.000;6.980;2023-03-16T14:15:16;67676.22;;;12.34;100.00
5988;BME280;3021;51.000;6.980;2023-03-16T14:17:42;67671.13;;;12.32;100.00
5988;BME280;3021;51.000;6.980;2023-03-16T14:20:18;67678.66;;;12.38;100.00
5988;BME280;3021;51.000;6.980;2023-03-16T14:22:44;67676.22;;;12.34;100.00
5988;BME280;3021;51.000;6.980;2023-03-16T14:25:17;67664.78;;;12.26;100.00
5988;BME280;3021;51.000;6.980;2023-03-16T14:27:44;67667.66;;;12.28;100.00
5988;BME280;3021;51.000;6.980;2023-03-16T14:30:22;67657.25;;;12.19;100.00
5988;BME280;3021;51.000;6.980;2023-03-16T14:33:18;67656.53;;;12.16;100.00
5988;BME280;3021;51.000;6.980;2023-03-16T14:35:53;67643.97;;;12.07;100.00
5988;BME280;3021;51.000;6.980;2023-03-16T14:38:29;67650.19;;;12.10;100.00
5988;BME280;3021;51.000;6.980;2023-03-16T14:41:01;67652.63;;;12.15;100.00
5988;BME280;3021;51.000;6.980;2023-03-16T14:43:29;67652.06;;;12.15;100.00
5988;BME280;3021;51.000;6.980;2023-03-16T14:45:57;67667.09;;;12.28;100.00
5988;BME280;3021;51.000;6.980;2023-03-16T14:48:23;67678.09;;;12.38;100.00